sensor_id;sensor_type;location;lat;lon;timestamp;temperature;humidity
67358;HTU21D;54240;51.096;5.878;2023-09-07T00:00:15;18.61;-6.00
67358;HTU21D;54240;51.096;5.878;2023-09-07T00:02:41;18.50;-6.00
67358;HTU21D;54240;51.096;5.878;2023-09-07T00:05:07;18.41;-6.00
67358;HTU21D;54240;51.096;5.878;2023-09-07T00:07:34;18.32;-6.00
67358;HTU21D;54240;51.096;5.878;2023-09-07T00:10:00;18.25;-6.00
67358;HTU21D;54240;51.096;5.878;2023-09-07T00:12:27;18.23;-6.00
67358;HTU21D;54240;51.096;5.878;2023-09-07T00:14:53;18.21;-6.00
67358;HTU21D;54240;51.096;5.878;2023-09-07T00:17:20;18.19;-6.00
67358;HTU21D;54240;51.096;5.878;2023-09-07T00:19:46;18.14;-6.00
67358;HTU21D;54240;51.096;5.878;2023-09-07T00:22:17;18.13;-6.00
67358;HTU21D;54240;51.096;5.878;2023-09-07T00:24:43;18.12;-6.00
67358;HTU21D;54240;51.096;5.878;2023-09-07T00:27:09;18.13;-6.00
67358;HTU21D;54240;51.096;5.878;2023-09-07T00:29:38;18.15;-6.00
67358;HTU21D;54240;51.096;5.878;2023-09-07T00:32:04;18.15;-6.00
67358;HTU21D;54240;51.096;5.878;2023-09-07T00:34:30;18.14;-6.00
67358;HTU21D;54240;51.096;5.878;2023-09-07T00:36:56;18.15;-6.00
67358;HTU21D;54240;51.096;5.878;2023-09-07T00:39:22;18.15;-6.00
67358;HTU21D;54240;51.096;5.878;2023-09-07T00:41:48;18.17;-6.00
67358;HTU21D;54240;51.096;5.878;2023-09-07T00:44:15;18.20;-6.00
67358;HTU21D;54240;51.096;5.878;2023-09-07T00:46:42;18.18;-6.00
67358;HTU21D;54240;51.096;5.878;2023-09-07T00:49:12;18.14;-6.00
67358;HTU21D;54240;51.096;5.878;2023-09-07T00:51:38;18.10;-6.00
67358;HTU21D;54240;51.096;5.878;2023-09-07T00:54:04;18.08;-6.00
67358;HTU21D;54240;51.096;5.878;2023-09-07T00:56:30;18.04;-6.00
67358;HTU21D;54240;51.096;5.878;2023-09-07T00:58:58;18.02;-6.00
67358;HTU21D;54240;51.096;5.878;2023-09-07T01:01:26;17.96;-6.00
67358;HTU21D;54240;51.096;5.878;2023-09-07T01:03:52;17.92;-6.00
67358;HTU21D;54240;51.096;5.878;2023-09-07T01:06:31;17.88;-6.00
67358;HTU21D;54240;51.096;5.878;2023-09-07T01:09:04;17.84;-6.00
67358;HTU21D;54240;51.096;5.878;2023-09-07T01:11:37;17.80;-6.00
67358;HTU21D;54240;51.096;5.878;2023-09-07T01:14:04;17.77;-6.00
67358;HTU21D;54240;51.096;5.878;2023-09-07T01:16:31;17.74;-6.00
67358;HTU21D;54240;51.096;5.878;2023-09-07T01:19:01;17.69;-6.00
67358;HTU21D;54240;51.096;5.878;2023-09-07T01:21:34;17.70;-6.00
67358;HTU21D;54240;51.096;5.878;2023-09-07T01:24:06;17.68;-6.00
67358;HTU21D;54240;51.096;5.878;2023-09-07T01:26:34;17.67;-6.00
67358;HTU21D;54240;51.096;5.878;2023-09-07T01:29:01;17.66;-6.00
67358;HTU21D;54240;51.096;5.878;2023-09-07T01:31:27;17.64;-6.00
67358;HTU21D;54240;51.096;5.878;2023-09-07T01:33:53;17.62;-6.00
67358;HTU21D;54240;51.096;5.878;2023-09-07T01:36:19;17.62;-6.00
67358;HTU21D;54240;51.096;5.878;2023-09-07T01:38:45;17.56;-6.00
67358;HTU21D;54240;51.096;5.878;2023-09-07T01:41:10;17.52;-6.00
67358;HTU21D;54240;51.096;5.878;2023-09-07T01:43:37;17.45;-6.00
67358;HTU21D;54240;51.096;5.878;2023-09-07T01:46:03;17.36;-6.00
67358;HTU21D;54240;51.096;5.878;2023-09-07T01:48:29;17.31;-6.00
67358;HTU21D;54240;51.096;5.878;2023-09-07T01:50:55;17.23;-6.00
67358;HTU21D;54240;51.096;5.878;2023-09-07T01:53:21;17.15;-6.00
67358;HTU21D;54240;51.096;5.878;2023-09-07T01:55:48;17.07;-6.00
67358;HTU21D;54240;51.096;5.878;2023-09-07T01:58:14;16.98;-6.00
67358;HTU21D;54240;51.096;5.878;2023-09-07T02:00:40;16.90;-6.00
67358;HTU21D;54240;51.096;5.878;2023-09-07T02:03:06;16.87;-6.00
67358;HTU21D;54240;51.096;5.878;2023-09-07T02:05:32;16.84;-6.00
67358;HTU21D;54240;51.096;5.878;2023-09-07T02:07:58;16.81;-6.00
67358;HTU21D;54240;51.096;5.878;2023-09-07T02:10:24;16.80;-6.00
67358;HTU21D;54240;51.096;5.878;2023-09-07T02:12:50;16.79;-6.00
67358;HTU21D;54240;51.096;5.878;2023-09-07T02:15:17;16.78;-6.00
67358;HTU21D;54240;51.096;5.878;2023-09-07T02:17:43;16.77;-6.00
67358;HTU21D;54240;51.096;5.878;2023-09-07T02:20:11;16.76;-6.00
67358;HTU21D;54240;51.096;5.878;2023-09-07T02:22:38;16.77;-6.00
67358;HTU21D;54240;51.096;5.878;2023-09-07T02:25:04;16.77;-6.00
67358;HTU21D;54240;51.096;5.878;2023-09-07T02:27:32;16.77;-6.00
67358;HTU21D;54240;51.096;5.878;2023-09-07T02:29:58;16.78;-6.00
67358;HTU21D;54240;51.096;5.878;2023-09-07T02:32:24;16.79;-6.00
67358;HTU21D;54240;51.096;5.878;2023-09-07T02:34:50;16.80;-6.00
67358;HTU21D;54240;51.096;5.878;2023-09-07T02:37:16;16.82;-6.00
67358;HTU21D;54240;51.096;5.878;2023-09-07T02:39:42;16.84;-6.00
67358;HTU21D;54240;51.096;5.878;2023-09-07T02:42:09;16.84;-6.00
67358;HTU21D;54240;51.096;5.878;2023-09-07T02:44:35;16.87;-6.00
67358;HTU21D;54240;51.096;5.878;2023-09-07T02:47:02;16.88;-6.00
67358;HTU21D;54240;51.096;5.878;2023-09-07T02:49:28;16.87;-6.00
67358;HTU21D;54240;51.096;5.878;2023-09-07T02:51:54;16.89;-6.00
67358;HTU21D;54240;51.096;5.878;2023-09-07T02:54:19;16.88;-6.00
67358;HTU21D;54240;51.096;5.878;2023-09-07T02:56:45;16.87;-6.00
67358;HTU21D;54240;51.096;5.878;2023-09-07T02:59:11;16.87;-6.00
67358;HTU21D;54240;51.096;5.878;2023-09-07T03:01:40;16.85;-6.00
67358;HTU21D;54240;51.096;5.878;2023-09-07T03:04:06;16.82;-6.00
67358;HTU21D;54240;51.096;5.878;2023-09-07T03:06:33;16.82;-6.00
67358;HTU21D;54240;51.096;5.878;2023-09-07T03:08:59;16.81;-6.00
67358;HTU21D;54240;51.096;5.878;2023-09-07T03:11:26;16.80;-6.00
67358;HTU21D;54240;51.096;5.878;2023-09-07T03:13:51;16.81;-6.00
67358;HTU21D;54240;51.096;5.878;2023-09-07T03:16:18;16.78;-6.00
67358;HTU21D;54240;51.096;5.878;2023-09-07T03:18:44;16.77;-6.00
67358;HTU21D;54240;51.096;5.878;2023-09-07T03:21:12;16.75;-6.00
67358;HTU21D;54240;51.096;5.878;2023-09-07T03:23:38;16.74;-6.00
67358;HTU21D;54240;51.096;5.878;2023-09-07T03:26:10;16.72;-6.00
67358;HTU21D;54240;51.096;5.878;2023-09-07T03:28:37;16.70;-6.00
67358;HTU21D;54240;51.096;5.878;2023-09-07T03:31:03;16.65;-6.00
67358;HTU21D;54240;51.096;5.878;2023-09-07T03:33:30;16.61;-6.00
67358;HTU21D;54240;51.096;5.878;2023-09-07T03:35:56;16.58;-6.00
67358;HTU21D;54240;51.096;5.878;2023-09-07T03:38:25;16.55;-6.00
67358;HTU21D;54240;51.096;5.878;2023-09-07T03:40:51;16.49;-6.00
67358;HTU21D;54240;51.096;5.878;2023-09-07T03:43:18;16.48;-6.00
67358;HTU21D;54240;51.096;5.878;2023-09-07T03:45:45;16.44;-6.00
67358;HTU21D;54240;51.096;5.878;2023-09-07T03:48:11;16.42;-6.00
67358;HTU21D;54240;51.096;5.878;2023-09-07T03:50:38;16.40;-6.00
67358;HTU21D;54240;51.096;5.878;2023-09-07T03:53:03;16.36;-6.00
67358;HTU21D;54240;51.096;5.878;2023-09-07T03:55:29;16.35;-6.00
67358;HTU21D;54240;51.096;5.878;2023-09-07T03:57:55;16.34;-6.00
67358;HTU21D;54240;51.096;5.878;2023-09-07T04:00:22;16.33;-6.00
67358;HTU21D;54240;51.096;5.878;2023-09-07T04:02:48;16.29;-6.00
67358;HTU21D;54240;51.096;5.878;2023-09-07T04:05:14;16.27;-6.00
67358;HTU21D;54240;51.096;5.878;2023-09-07T04:07:40;16.26;-6.00
67358;HTU21D;54240;51.096;5.878;2023-09-07T04:10:06;16.26;-6.00
67358;HTU21D;54240;51.096;5.878;2023-09-07T04:12:32;16.26;-6.00
67358;HTU21D;54240;51.096;5.878;2023-09-07T04:15:03;16.26;-6.00
67358;HTU21D;54240;51.096;5.878;2023-09-07T04:17:30;16.25;-6.00
67358;HTU21D;54240;51.096;5.878;2023-09-07T04:19:58;16.24;-6.00
67358;HTU21D;54240;51.096;5.878;2023-09-07T04:22:24;16.26;-6.00
67358;HTU21D;54240;51.096;5.878;2023-09-07T04:24:50;16.27;-6.00
67358;HTU21D;54240;51.096;5.878;2023-09-07T04:27:16;16.28;-6.00
67358;HTU21D;54240;51.096;5.878;2023-09-07T04:29:43;16.28;-6.00
67358;HTU21D;54240;51.096;5.878;2023-09-07T04:32:09;16.28;-6.00
67358;HTU21D;54240;51.096;5.878;2023-09-07T04:34:34;16.32;-6.00
67358;HTU21D;54240;51.096;5.878;2023-09-07T04:37:00;16.34;-6.00
67358;HTU21D;54240;51.096;5.878;2023-09-07T04:39:26;16.37;-6.00
67358;HTU21D;54240;51.096;5.878;2023-09-07T04:41:52;16.42;-6.00
67358;HTU21D;54240;51.096;5.878;2023-09-07T04:44:18;16.50;-6.00
67358;HTU21D;54240;51.096;5.878;2023-09-07T04:46:44;16.46;-6.00
67358;HTU21D;54240;51.096;5.878;2023-09-07T04:49:11;16.46;-6.00
67358;HTU21D;54240;51.096;5.878;2023-09-07T04:51:37;16.44;-6.00
67358;HTU21D;54240;51.096;5.878;2023-09-07T04:54:03;16.43;-6.00
67358;HTU21D;54240;51.096;5.878;2023-09-07T04:56:30;16.42;-6.00
67358;HTU21D;54240;51.096;5.878;2023-09-07T04:58:56;16.40;-6.00
67358;HTU21D;54240;51.096;5.878;2023-09-07T05:01:22;16.41;-6.00
67358;HTU21D;54240;51.096;5.878;2023-09-07T05:03:49;16.42;-6.00
67358;HTU21D;54240;51.096;5.878;2023-09-07T05:06:16;16.42;-6.00
67358;HTU21D;54240;51.096;5.878;2023-09-07T05:08:42;16.42;-6.00
67358;HTU21D;54240;51.096;5.878;2023-09-07T05:11:08;16.44;-6.00
67358;HTU21D;54240;51.096;5.878;2023-09-07T05:13:34;16.47;-6.00
67358;HTU21D;54240;51.096;5.878;2023-09-07T05:16:01;16.48;-6.00
67358;HTU21D;54240;51.096;5.878;2023-09-07T05:18:27;16.49;-6.00
67358;HTU21D;54240;51.096;5.878;2023-09-07T05:20:53;16.52;-6.00
67358;HTU21D;54240;51.096;5.878;2023-09-07T05:23:21;16.56;-6.00
67358;HTU21D;54240;51.096;5.878;2023-09-07T05:25:54;16.64;-6.00
67358;HTU21D;54240;51.096;5.878;2023-09-07T05:28:23;16.74;-6.00
67358;HTU21D;54240;51.096;5.878;2023-09-07T05:30:51;16.82;-6.00
67358;HTU21D;54240;51.096;5.878;2023-09-07T05:33:20;16.88;-6.00
67358;HTU21D;54240;51.096;5.878;2023-09-07T05:35:46;16.92;-6.00
67358;HTU21D;54240;51.096;5.878;2023-09-07T05:38:12;16.95;-6.00
67358;HTU21D;54240;51.096;5.878;2023-09-07T05:40:43;16.98;-6.00
67358;HTU21D;54240;51.096;5.878;2023-09-07T05:43:10;17.00;-6.00
67358;HTU21D;54240;51.096;5.878;2023-09-07T05:45:39;17.04;-6.00
67358;HTU21D;54240;51.096;5.878;2023-09-07T05:48:07;17.05;-6.00
67358;HTU21D;54240;51.096;5.878;2023-09-07T05:50:37;17.09;-6.00
67358;HTU21D;54240;51.096;5.878;2023-09-07T05:53:04;17.11;-6.00
67358;HTU21D;54240;51.096;5.878;2023-09-07T05:55:31;17.19;-6.00
67358;HTU21D;54240;51.096;5.878;2023-09-07T05:57:58;17.23;-6.00
67358;HTU21D;54240;51.096;5.878;2023-09-07T06:00:26;17.28;-6.00
67358;HTU21D;54240;51.096;5.878;2023-09-07T06:02:52;17.34;-6.00
67358;HTU21D;54240;51.096;5.878;2023-09-07T06:05:18;17.39;-6.00
67358;HTU21D;54240;51.096;5.878;2023-09-07T06:07:45;17.45;-6.00
67358;HTU21D;54240;51.096;5.878;2023-09-07T06:10:12;17.56;-6.00
67358;HTU21D;54240;51.096;5.878;2023-09-07T06:12:38;17.65;-6.00
67358;HTU21D;54240;51.096;5.878;2023-09-07T06:15:05;17.77;-6.00
67358;HTU21D;54240;51.096;5.878;2023-09-07T06:17:32;17.89;-6.00
67358;HTU21D;54240;51.096;5.878;2023-09-07T06:19:58;17.99;-6.00
67358;HTU21D;54240;51.096;5.878;2023-09-07T06:22:25;18.09;-6.00
67358;HTU21D;54240;51.096;5.878;2023-09-07T06:24:51;18.15;-6.00
67358;HTU21D;54240;51.096;5.878;2023-09-07T06:27:18;18.23;-6.00
67358;HTU21D;54240;51.096;5.878;2023-09-07T06:29:44;18.32;-6.00
67358;HTU21D;54240;51.096;5.878;2023-09-07T06:32:10;18.41;-6.00
67358;HTU21D;54240;51.096;5.878;2023-09-07T06:34:36;18.51;-6.00
67358;HTU21D;54240;51.096;5.878;2023-09-07T06:37:02;18.61;-6.00
67358;HTU21D;54240;51.096;5.878;2023-09-07T06:39:28;18.71;-6.00
67358;HTU21D;54240;51.096;5.878;2023-09-07T06:41:54;18.82;-6.00
67358;HTU21D;54240;51.096;5.878;2023-09-07T06:44:22;18.93;-6.00
67358;HTU21D;54240;51.096;5.878;2023-09-07T06:46:49;19.03;-6.00
67358;HTU21D;54240;51.096;5.878;2023-09-07T06:49:17;19.12;-6.00
67358;HTU21D;54240;51.096;5.878;2023-09-07T06:51:43;19.24;-6.00
67358;HTU21D;54240;51.096;5.878;2023-09-07T06:54:09;19.35;-6.00
67358;HTU21D;54240;51.096;5.878;2023-09-07T06:56:36;19.45;-6.00
67358;HTU21D;54240;51.096;5.878;2023-09-07T06:59:02;19.57;-6.00
67358;HTU21D;54240;51.096;5.878;2023-09-07T07:01:28;19.68;-6.00
67358;HTU21D;54240;51.096;5.878;2023-09-07T07:03:54;19.71;-6.00
67358;HTU21D;54240;51.096;5.878;2023-09-07T07:06:23;19.83;-6.00
67358;HTU21D;54240;51.096;5.878;2023-09-07T07:08:51;19.96;-6.00
67358;HTU21D;54240;51.096;5.878;2023-09-07T07:11:17;20.20;-6.00
67358;HTU21D;54240;51.096;5.878;2023-09-07T07:13:43;20.35;-6.00
67358;HTU21D;54240;51.096;5.878;2023-09-07T07:16:09;20.46;-6.00
67358;HTU21D;54240;51.096;5.878;2023-09-07T07:18:35;20.58;-6.00
67358;HTU21D;54240;51.096;5.878;2023-09-07T07:21:01;20.62;-6.00
67358;HTU21D;54240;51.096;5.878;2023-09-07T07:23:27;20.75;-6.00
67358;HTU21D;54240;51.096;5.878;2023-09-07T07:25:53;20.90;-6.00
67358;HTU21D;54240;51.096;5.878;2023-09-07T07:28:19;21.08;-6.00
67358;HTU21D;54240;51.096;5.878;2023-09-07T07:30:44;21.29;-6.00
67358;HTU21D;54240;51.096;5.878;2023-09-07T07:33:11;0.00;-4.05
67358;HTU21D;54240;51.096;5.878;2023-09-07T07:35:39;21.95;-2.10
67358;HTU21D;54240;51.096;5.878;2023-09-07T07:38:06;22.47;-6.00
67358;HTU21D;54240;51.096;5.878;2023-09-07T07:40:34;23.06;-6.00
67358;HTU21D;54240;51.096;5.878;2023-09-07T07:43:00;23.49;-6.00
67358;HTU21D;54240;51.096;5.878;2023-09-07T07:45:26;24.02;-6.00
67358;HTU21D;54240;51.096;5.878;2023-09-07T07:47:53;24.56;-6.00
67358;HTU21D;54240;51.096;5.878;2023-09-07T07:50:20;25.01;-6.00
67358;HTU21D;54240;51.096;5.878;2023-09-07T07:52:47;25.34;-6.00
67358;HTU21D;54240;51.096;5.878;2023-09-07T07:55:13;25.56;-6.00
67358;HTU21D;54240;51.096;5.878;2023-09-07T07:57:40;25.76;-6.00
67358;HTU21D;54240;51.096;5.878;2023-09-07T08:00:08;25.96;-6.00
67358;HTU21D;54240;51.096;5.878;2023-09-07T08:02:46;26.12;-6.00
67358;HTU21D;54240;51.096;5.878;2023-09-07T08:05:13;26.18;-6.00
67358;HTU21D;54240;51.096;5.878;2023-09-07T08:07:39;26.41;-6.00
67358;HTU21D;54240;51.096;5.878;2023-09-07T08:10:05;26.58;-6.00
67358;HTU21D;54240;51.096;5.878;2023-09-07T08:12:31;26.85;-6.00
67358;HTU21D;54240;51.096;5.878;2023-09-07T08:14:57;27.07;-6.00
67358;HTU21D;54240;51.096;5.878;2023-09-07T08:17:23;27.21;-6.00
67358;HTU21D;54240;51.096;5.878;2023-09-07T08:19:51;14.92;-6.00
67358;HTU21D;54240;51.096;5.878;2023-09-07T08:22:22;27.45;-6.00
67358;HTU21D;54240;51.096;5.878;2023-09-07T08:24:48;27.46;-6.00
67358;HTU21D;54240;51.096;5.878;2023-09-07T08:27:17;27.75;-6.00
67358;HTU21D;54240;51.096;5.878;2023-09-07T08:29:46;27.76;-6.00
67358;HTU21D;54240;51.096;5.878;2023-09-07T08:32:18;28.01;-6.00
67358;HTU21D;54240;51.096;5.878;2023-09-07T08:34:44;28.01;-6.00
67358;HTU21D;54240;51.096;5.878;2023-09-07T08:37:10;28.20;-6.00
67358;HTU21D;54240;51.096;5.878;2023-09-07T08:39:36;28.33;-6.00
67358;HTU21D;54240;51.096;5.878;2023-09-07T08:42:02;28.75;-6.00
67358;HTU21D;54240;51.096;5.878;2023-09-07T08:44:32;29.20;-6.00
67358;HTU21D;54240;51.096;5.878;2023-09-07T08:47:02;29.35;-6.00
67358;HTU21D;54240;51.096;5.878;2023-09-07T08:49:29;29.47;-6.00
67358;HTU21D;54240;51.096;5.878;2023-09-07T08:51:59;29.45;-6.00
67358;HTU21D;54240;51.096;5.878;2023-09-07T08:54:26;29.57;-6.00
67358;HTU21D;54240;51.096;5.878;2023-09-07T08:56:52;29.70;-6.00
67358;HTU21D;54240;51.096;5.878;2023-09-07T08:59:18;29.86;-6.00
67358;HTU21D;54240;51.096;5.878;2023-09-07T09:01:44;29.90;-6.00
67358;HTU21D;54240;51.096;5.878;2023-09-07T09:04:10;30.02;-6.00
67358;HTU21D;54240;51.096;5.878;2023-09-07T09:06:36;30.32;-6.00
67358;HTU21D;54240;51.096;5.878;2023-09-07T09:09:02;30.54;-6.00
67358;HTU21D;54240;51.096;5.878;2023-09-07T09:11:30;30.30;-6.00
67358;HTU21D;54240;51.096;5.878;2023-09-07T09:13:56;29.95;-6.00
67358;HTU21D;54240;51.096;5.878;2023-09-07T09:16:22;30.23;-6.00
67358;HTU21D;54240;51.096;5.878;2023-09-07T09:18:49;30.21;-6.00
67358;HTU21D;54240;51.096;5.878;2023-09-07T09:21:18;30.06;-6.00
67358;HTU21D;54240;51.096;5.878;2023-09-07T09:23:48;30.00;-6.00
67358;HTU21D;54240;51.096;5.878;2023-09-07T09:26:19;30.17;-6.00
67358;HTU21D;54240;51.096;5.878;2023-09-07T09:28:45;30.26;-6.00
67358;HTU21D;54240;51.096;5.878;2023-09-07T09:31:12;30.68;-6.00
67358;HTU21D;54240;51.096;5.878;2023-09-07T09:33:39;31.01;-6.00
67358;HTU21D;54240;51.096;5.878;2023-09-07T09:36:06;31.20;-6.00
67358;HTU21D;54240;51.096;5.878;2023-09-07T09:38:33;31.39;-6.00
67358;HTU21D;54240;51.096;5.878;2023-09-07T09:41:00;31.52;-6.00
67358;HTU21D;54240;51.096;5.878;2023-09-07T09:43:29;31.67;-6.00
67358;HTU21D;54240;51.096;5.878;2023-09-07T09:45:55;31.96;-6.00
67358;HTU21D;54240;51.096;5.878;2023-09-07T09:48:22;32.40;-6.00
67358;HTU21D;54240;51.096;5.878;2023-09-07T09:50:50;32.86;-6.00
67358;HTU21D;54240;51.096;5.878;2023-09-07T09:53:17;33.30;-6.00
67358;HTU21D;54240;51.096;5.878;2023-09-07T09:55:49;33.58;-6.00
67358;HTU21D;54240;51.096;5.878;2023-09-07T09:58:16;33.96;-6.00
67358;HTU21D;54240;51.096;5.878;2023-09-07T10:00:48;34.24;-6.00
67358;HTU21D;54240;51.096;5.878;2023-09-07T10:03:28;0.00;-6.00
67358;HTU21D;54240;51.096;5.878;2023-09-07T10:05:56;34.51;-6.00
67358;HTU21D;54240;51.096;5.878;2023-09-07T10:08:22;34.50;-6.00
67358;HTU21D;54240;51.096;5.878;2023-09-07T10:10:54;34.83;-6.00
67358;HTU21D;54240;51.096;5.878;2023-09-07T10:13:31;35.19;-6.00
67358;HTU21D;54240;51.096;5.878;2023-09-07T10:16:04;35.60;-6.00
67358;HTU21D;54240;51.096;5.878;2023-09-07T10:18:34;35.77;-6.00
67358;HTU21D;54240;51.096;5.878;2023-09-07T10:21:01;35.34;-6.00
67358;HTU21D;54240;51.096;5.878;2023-09-07T10:23:41;35.23;-6.00
67358;HTU21D;54240;51.096;5.878;2023-09-07T10:26:16;35.11;-6.00
67358;HTU21D;54240;51.096;5.878;2023-09-07T10:28:44;34.93;-6.00
67358;HTU21D;54240;51.096;5.878;2023-09-07T10:31:18;34.51;-6.00
67358;HTU21D;54240;51.096;5.878;2023-09-07T10:33:45;34.70;-6.00
67358;HTU21D;54240;51.096;5.878;2023-09-07T10:36:27;35.36;-6.00
67358;HTU21D;54240;51.096;5.878;2023-09-07T10:38:56;35.79;-6.00
67358;HTU21D;54240;51.096;5.878;2023-09-07T10:41:22;36.07;-6.00
67358;HTU21D;54240;51.096;5.878;2023-09-07T10:43:50;36.41;-6.00
67358;HTU21D;54240;51.096;5.878;2023-09-07T10:46:21;36.89;-6.00
67358;HTU21D;54240;51.096;5.878;2023-09-07T10:48:51;36.98;-6.00
67358;HTU21D;54240;51.096;5.878;2023-09-07T10:51:18;37.57;-6.00
67358;HTU21D;54240;51.096;5.878;2023-09-07T10:53:44;37.81;-6.00
67358;HTU21D;54240;51.096;5.878;2023-09-07T10:56:10;37.65;-6.00
67358;HTU21D;54240;51.096;5.878;2023-09-07T10:58:38;37.72;-6.00
67358;HTU21D;54240;51.096;5.878;2023-09-07T11:01:05;37.63;-6.00
67358;HTU21D;54240;51.096;5.878;2023-09-07T11:03:31;37.59;-6.00
67358;HTU21D;54240;51.096;5.878;2023-09-07T11:06:08;37.30;-6.00
67358;HTU21D;54240;51.096;5.878;2023-09-07T11:08:35;37.26;-6.00
67358;HTU21D;54240;51.096;5.878;2023-09-07T11:11:04;37.00;-6.00
67358;HTU21D;54240;51.096;5.878;2023-09-07T11:13:30;36.97;-6.00
67358;HTU21D;54240;51.096;5.878;2023-09-07T11:15:57;36.85;-6.00
67358;HTU21D;54240;51.096;5.878;2023-09-07T11:18:24;36.83;-6.00
67358;HTU21D;54240;51.096;5.878;2023-09-07T11:20:52;36.91;-6.00
67358;HTU21D;54240;51.096;5.878;2023-09-07T11:23:20;37.12;-6.00
67358;HTU21D;54240;51.096;5.878;2023-09-07T11:25:47;37.32;-6.00
67358;HTU21D;54240;51.096;5.878;2023-09-07T11:28:17;37.34;-6.00
67358;HTU21D;54240;51.096;5.878;2023-09-07T11:30:53;37.41;-6.00
67358;HTU21D;54240;51.096;5.878;2023-09-07T11:33:21;37.56;-6.00
67358;HTU21D;54240;51.096;5.878;2023-09-07T11:35:47;37.64;-6.00
67358;HTU21D;54240;51.096;5.878;2023-09-07T11:38:15;37.55;-6.00
67358;HTU21D;54240;51.096;5.878;2023-09-07T11:40:42;37.54;-6.00
67358;HTU21D;54240;51.096;5.878;2023-09-07T11:43:14;37.55;-6.00
67358;HTU21D;54240;51.096;5.878;2023-09-07T11:45:43;37.43;-6.00
67358;HTU21D;54240;51.096;5.878;2023-09-07T11:48:10;37.38;-6.00
67358;HTU21D;54240;51.096;5.878;2023-09-07T11:50:37;37.69;-6.00
67358;HTU21D;54240;51.096;5.878;2023-09-07T11:53:04;38.32;-6.00
67358;HTU21D;54240;51.096;5.878;2023-09-07T11:55:31;38.75;-6.00
67358;HTU21D;54240;51.096;5.878;2023-09-07T11:57:57;38.52;-6.00
67358;HTU21D;54240;51.096;5.878;2023-09-07T12:00:23;38.15;-6.00
67358;HTU21D;54240;51.096;5.878;2023-09-07T12:02:49;37.85;-6.00
67358;HTU21D;54240;51.096;5.878;2023-09-07T12:05:15;37.41;-6.00
67358;HTU21D;54240;51.096;5.878;2023-09-07T12:07:43;36.91;-6.00
67358;HTU21D;54240;51.096;5.878;2023-09-07T12:10:09;36.44;-6.00
67358;HTU21D;54240;51.096;5.878;2023-09-07T12:12:43;36.06;-6.00
67358;HTU21D;54240;51.096;5.878;2023-09-07T12:15:10;35.39;-6.00
67358;HTU21D;54240;51.096;5.878;2023-09-07T12:17:39;35.16;-6.00
67358;HTU21D;54240;51.096;5.878;2023-09-07T12:20:06;34.88;-6.00
67358;HTU21D;54240;51.096;5.878;2023-09-07T12:22:36;34.81;-6.00
67358;HTU21D;54240;51.096;5.878;2023-09-07T12:25:06;34.65;-6.00
67358;HTU21D;54240;51.096;5.878;2023-09-07T12:27:33;34.76;-6.00
67358;HTU21D;54240;51.096;5.878;2023-09-07T12:30:03;34.86;-6.00
67358;HTU21D;54240;51.096;5.878;2023-09-07T12:32:33;34.80;-6.00
67358;HTU21D;54240;51.096;5.878;2023-09-07T12:34:59;34.80;-6.00
67358;HTU21D;54240;51.096;5.878;2023-09-07T12:37:25;34.56;-6.00
67358;HTU21D;54240;51.096;5.878;2023-09-07T12:39:51;34.39;-6.00
67358;HTU21D;54240;51.096;5.878;2023-09-07T12:42:17;34.54;-6.00
67358;HTU21D;54240;51.096;5.878;2023-09-07T12:44:44;34.50;-6.00
67358;HTU21D;54240;51.096;5.878;2023-09-07T12:47:10;34.48;-6.00
67358;HTU21D;54240;51.096;5.878;2023-09-07T12:49:36;34.37;-6.00
67358;HTU21D;54240;51.096;5.878;2023-09-07T12:52:01;34.36;-6.00
67358;HTU21D;54240;51.096;5.878;2023-09-07T12:54:34;34.39;-6.00
67358;HTU21D;54240;51.096;5.878;2023-09-07T12:57:01;34.20;-6.00
67358;HTU21D;54240;51.096;5.878;2023-09-07T12:59:28;34.15;-6.00
67358;HTU21D;54240;51.096;5.878;2023-09-07T13:01:54;34.34;-6.00
67358;HTU21D;54240;51.096;5.878;2023-09-07T13:04:23;34.63;-6.00
67358;HTU21D;54240;51.096;5.878;2023-09-07T13:06:49;34.48;-6.00
67358;HTU21D;54240;51.096;5.878;2023-09-07T13:09:15;34.56;-6.00
67358;HTU21D;54240;51.096;5.878;2023-09-07T13:11:41;34.86;-6.00
67358;HTU21D;54240;51.096;5.878;2023-09-07T13:14:07;34.99;-6.00
67358;HTU21D;54240;51.096;5.878;2023-09-07T13:16:36;34.81;-6.00
67358;HTU21D;54240;51.096;5.878;2023-09-07T13:19:02;34.77;-6.00
67358;HTU21D;54240;51.096;5.878;2023-09-07T13:21:28;34.89;-6.00
67358;HTU21D;54240;51.096;5.878;2023-09-07T13:23:54;34.84;-6.00
67358;HTU21D;54240;51.096;5.878;2023-09-07T13:26:20;34.94;-6.00
67358;HTU21D;54240;51.096;5.878;2023-09-07T13:28:45;35.06;-6.00
67358;HTU21D;54240;51.096;5.878;2023-09-07T13:31:11;35.06;-6.00
67358;HTU21D;54240;51.096;5.878;2023-09-07T13:33:37;35.08;-6.00
67358;HTU21D;54240;51.096;5.878;2023-09-07T13:36:03;34.98;-6.00
67358;HTU21D;54240;51.096;5.878;2023-09-07T13:38:29;35.06;-6.00
67358;HTU21D;54240;51.096;5.878;2023-09-07T13:40:55;35.05;-6.00
67358;HTU21D;54240;51.096;5.878;2023-09-07T13:43:20;35.04;-6.00
67358;HTU21D;54240;51.096;5.878;2023-09-07T13:45:47;35.18;-6.00
67358;HTU21D;54240;51.096;5.878;2023-09-07T13:48:13;35.36;-6.00
67358;HTU21D;54240;51.096;5.878;2023-09-07T13:50:39;35.40;-6.00
67358;HTU21D;54240;51.096;5.878;2023-09-07T13:53:05;35.33;-6.00
67358;HTU21D;54240;51.096;5.878;2023-09-07T13:55:31;35.25;-6.00
67358;HTU21D;54240;51.096;5.878;2023-09-07T13:57:57;35.19;-6.00
67358;HTU21D;54240;51.096;5.878;2023-09-07T14:00:22;35.11;-6.00
67358;HTU21D;54240;51.096;5.878;2023-09-07T14:02:49;35.18;-6.00
67358;HTU21D;54240;51.096;5.878;2023-09-07T14:05:15;35.26;-6.00
67358;HTU21D;54240;51.096;5.878;2023-09-07T14:07:41;35.08;-6.00
67358;HTU21D;54240;51.096;5.878;2023-09-07T14:10:07;35.01;-6.00
67358;HTU21D;54240;51.096;5.878;2023-09-07T14:12:33;34.93;-6.00
67358;HTU21D;54240;51.096;5.878;2023-09-07T14:14:59;34.93;-6.00
67358;HTU21D;54240;51.096;5.878;2023-09-07T14:17:25;34.98;-6.00
67358;HTU21D;54240;51.096;5.878;2023-09-07T14:19:51;35.16;-6.00
67358;HTU21D;54240;51.096;5.878;2023-09-07T14:22:16;35.33;-6.00
67358;HTU21D;54240;51.096;5.878;2023-09-07T14:24:42;35.20;-6.00
67358;HTU21D;54240;51.096;5.878;2023-09-07T14:27:08;35.13;-6.00
67358;HTU21D;54240;51.096;5.878;2023-09-07T14:29:35;35.22;-6.00
67358;HTU21D;54240;51.096;5.878;2023-09-07T14:32:02;35.24;-6.00
67358;HTU21D;54240;51.096;5.878;2023-09-07T14:34:29;35.42;-6.00
67358;HTU21D;54240;51.096;5.878;2023-09-07T14:36:55;35.50;-6.00
67358;HTU21D;54240;51.096;5.878;2023-09-07T14:39:21;35.54;-6.00
67358;HTU21D;54240;51.096;5.878;2023-09-07T14:41:50;35.60;-6.00
67358;HTU21D;54240;51.096;5.878;2023-09-07T14:44:16;35.57;-6.00
67358;HTU21D;54240;51.096;5.878;2023-09-07T14:46:42;35.49;-6.00
67358;HTU21D;54240;51.096;5.878;2023-09-07T14:49:08;35.25;-6.00
67358;HTU21D;54240;51.096;5.878;2023-09-07T14:51:33;34.96;-6.00
67358;HTU21D;54240;51.096;5.878;2023-09-07T14:53:59;34.92;-6.00
67358;HTU21D;54240;51.096;5.878;2023-09-07T14:56:25;34.98;-6.00
67358;HTU21D;54240;51.096;5.878;2023-09-07T14:58:52;35.13;-6.00
67358;HTU21D;54240;51.096;5.878;2023-09-07T15:01:18;35.10;-6.00
67358;HTU21D;54240;51.096;5.878;2023-09-07T15:03:44;35.09;-6.00
67358;HTU21D;54240;51.096;5.878;2023-09-07T15:06:10;35.22;-6.00
67358;HTU21D;54240;51.096;5.878;2023-09-07T15:08:38;35.39;-6.00
67358;HTU21D;54240;51.096;5.878;2023-09-07T15:11:04;35.45;-6.00
67358;HTU21D;54240;51.096;5.878;2023-09-07T15:13:30;35.43;-6.00